createdAt,value
2018-04-01T00:02:32.205Z,100597.77
2018-04-01T00:05:34.301Z,100594.06
2018-04-01T00:08:36.413Z,100597.00
2018-04-01T00:11:38.522Z,100605.48
2018-04-01T00:14:40.661Z,100609.12
2018-04-01T00:17:42.756Z,100612.63
2018-04-01T00:20:44.873Z,100628.61
2018-04-01T00:23:47.026Z,100636.51
2018-04-01T00:26:49.117Z,100639.43
2018-04-01T00:29:51.251Z,100635.18
2018-04-01T00:32:53.532Z,100639.09
2018-04-01T00:35:55.634Z,100642.88
2018-04-01T00:38:58.766Z,100637.45
2018-04-01T00:42:01.910Z,100637.34
2018-04-01T00:45:04.094Z,100643.38
2018-04-01T00:48:06.181Z,100650.70
2018-04-01T00:51:08.295Z,100648.53
2018-04-01T00:54:10.513Z,100652.06
2018-04-01T00:57:12.618Z,100657.27
2018-04-01T01:00:14.771Z,100652.01
2018-04-01T01:03:17.337Z,100653.19
2018-04-01T01:06:19.459Z,100659.36
2018-04-01T01:09:21.609Z,100662.04
2018-04-01T01:12:23.748Z,100660.46
2018-04-01T01:15:25.855Z,100664.40
2018-04-01T01:18:27.954Z,100662.09
2018-04-01T01:21:30.061Z,100670.03
2018-04-01T01:24:32.201Z,100670.89
2018-04-01T01:27:34.317Z,100670.68
2018-04-01T01:30:36.446Z,100679.82
2018-04-01T01:33:38.567Z,100687.48
2018-04-01T01:36:40.817Z,100694.87
2018-04-01T01:39:42.970Z,100703.02
2018-04-01T01:42:45.453Z,100707.07
2018-04-01T01:45:47.575Z,100709.72
2018-04-01T01:48:49.685Z,100705.87
2018-04-01T01:51:51.957Z,100708.76
2018-04-01T01:54:54.454Z,100712.27
2018-04-01T01:57:56.566Z,100710.60
2018-04-01T02:00:58.683Z,100709.92
2018-04-01T02:04:00.853Z,100714.54
2018-04-01T02:07:02.949Z,100720.75
2018-04-01T02:10:05.059Z,100718.73
2018-04-01T02:13:07.162Z,100725.38
2018-04-01T02:16:09.300Z,100727.42
2018-04-01T02:19:11.418Z,100719.85
2018-04-01T02:22:13.520Z,100723.77
2018-04-01T02:25:15.647Z,100728.41
2018-04-01T02:28:17.762Z,100724.67
2018-04-01T02:31:19.907Z,100727.34
2018-04-01T02:34:22.002Z,100727.11
2018-04-01T02:37:24.176Z,100729.06
2018-04-01T02:40:26.297Z,100730.44
2018-04-01T02:43:28.407Z,100740.14
2018-04-01T02:46:30.507Z,100742.82
2018-04-01T02:49:32.626Z,100745.10
2018-04-01T02:52:34.722Z,100748.42
2018-04-01T02:55:36.918Z,100751.86
2018-04-01T02:58:39.024Z,100752.54
2018-04-01T03:01:41.131Z,100758.55
2018-04-01T03:04:43.257Z,100756.56
2018-04-01T03:07:45.370Z,100760.49
2018-04-01T03:10:47.483Z,100766.79
2018-04-01T03:13:49.678Z,100767.99
2018-04-01T03:16:51.846Z,100772.33
2018-04-01T03:19:53.953Z,100779.16
2018-04-01T03:22:56.093Z,100778.46
2018-04-01T03:25:58.215Z,100779.79
2018-04-01T03:29:00.309Z,100781.61
2018-04-01T03:32:02.413Z,100780.87
2018-04-01T03:35:04.542Z,100786.42
2018-04-01T03:38:06.677Z,100788.85
2018-04-01T03:41:08.813Z,100787.52
2018-04-01T03:44:10.903Z,100791.53
2018-04-01T03:47:13.034Z,100790.61
2018-04-01T03:50:15.143Z,100797.67
2018-04-01T03:53:17.253Z,100799.03
2018-04-01T03:56:19.371Z,100802.83
2018-04-01T03:59:21.490Z,100802.02
2018-04-01T04:02:23.584Z,100802.54
2018-04-01T04:05:25.701Z,100807.10
2018-04-01T04:08:27.832Z,100806.38
2018-04-01T04:11:29.929Z,100809.09
2018-04-01T04:14:32.054Z,100815.52
2018-04-01T04:17:34.292Z,100818.65
2018-04-01T04:20:36.372Z,100815.90
2018-04-01T04:23:38.518Z,100822.37
2018-04-01T04:26:40.602Z,100823.52
2018-04-01T04:29:42.734Z,100826.95
2018-04-01T04:32:44.840Z,100829.22
2018-04-01T04:35:46.961Z,100839.45
2018-04-01T04:38:49.128Z,100838.96
2018-04-01T04:41:51.290Z,100847.61
2018-04-01T04:44:53.377Z,100858.13
2018-04-01T04:47:55.543Z,100865.74
2018-04-01T04:50:57.647Z,100865.14
2018-04-01T04:53:59.793Z,100872.60
2018-04-01T04:57:01.893Z,100874.88
2018-04-01T05:00:04.004Z,100877.43
2018-04-01T05:03:06.110Z,100883.34
2018-04-01T05:06:08.232Z,100884.22
2018-04-01T05:09:10.348Z,100889.93
2018-04-01T05:12:12.514Z,100890.94
2018-04-01T05:15:14.646Z,100900.59
2018-04-01T05:18:16.877Z,100900.13
2018-04-01T05:21:18.998Z,100902.44
2018-04-01T05:24:21.174Z,100902.41
2018-04-01T05:27:23.418Z,100910.44
2018-04-01T05:30:25.558Z,100915.51
2018-04-01T05:33:27.691Z,100922.37
2018-04-01T05:36:29.780Z,100930.72
2018-04-01T05:39:31.885Z,100941.23
2018-04-01T05:42:34.009Z,100943.94
2018-04-01T05:45:36.447Z,100946.27
2018-04-01T05:48:38.633Z,100945.95
2018-04-01T05:51:40.776Z,100947.65
2018-04-01T05:54:42.901Z,100946.73
2018-04-01T05:57:45.013Z,100945.56
2018-04-01T06:00:47.112Z,100954.25
2018-04-01T06:03:49.227Z,100953.41
2018-04-01T06:06:51.385Z,100954.98
2018-04-01T06:09:53.453Z,100956.48
2018-04-01T06:12:55.596Z,100956.21
2018-04-01T06:15:57.751Z,100972.10
2018-04-01T06:18:59.896Z,100969.56
2018-04-01T06:22:02.030Z,100970.74
2018-04-01T06:25:04.154Z,100968.49
2018-04-01T06:28:06.261Z,100972.40
2018-04-01T06:31:08.380Z,100974.73
2018-04-01T06:34:10.495Z,100980.75
2018-04-01T06:37:12.648Z,100989.80
2018-04-01T06:40:14.763Z,100993.70
2018-04-01T06:43:16.862Z,100991.88
2018-04-01T06:46:18.977Z,100991.31
2018-04-01T06:49:21.124Z,100995.42
2018-04-01T06:52:23.210Z,100998.97
2018-04-01T06:55:25.320Z,101002.87
2018-04-01T06:58:27.631Z,101013.57
2018-04-01T07:01:30.076Z,101016.02
2018-04-01T07:04:32.193Z,101007.80
2018-04-01T07:07:34.715Z,101016.10
2018-04-01T07:10:37.775Z,101013.68
2018-04-01T07:13:39.860Z,101025.37
2018-04-01T07:16:41.976Z,101022.85
2018-04-01T07:19:44.082Z,101033.28
2018-04-01T07:22:46.263Z,101033.20
2018-04-01T07:25:48.366Z,101040.29
2018-04-01T07:28:50.541Z,101046.61
2018-04-01T07:31:52.695Z,101046.60
2018-04-01T07:34:54.823Z,101044.48
2018-04-01T07:37:56.946Z,101048.86
2018-04-01T07:40:59.066Z,101054.85
2018-04-01T07:44:01.188Z,101053.93
2018-04-01T07:47:03.297Z,101060.91
2018-04-01T07:50:05.413Z,101060.37
2018-04-01T07:53:07.641Z,101067.42
2018-04-01T07:56:09.740Z,101069.50
2018-04-01T07:59:11.852Z,101071.96
2018-04-01T08:02:13.992Z,101074.33
2018-04-01T08:05:16.182Z,101079.13
2018-04-01T08:08:18.293Z,101081.85
2018-04-01T08:11:20.394Z,101085.03
2018-04-01T08:14:22.566Z,101091.98
2018-04-01T08:17:24.697Z,101088.04
2018-04-01T08:20:26.805Z,101083.55
2018-04-01T08:23:28.916Z,101085.76
2018-04-01T08:26:31.134Z,101093.81
2018-04-01T08:29:33.235Z,101095.42
2018-04-01T08:32:35.348Z,101087.08
2018-04-01T08:35:37.461Z,101092.79
2018-04-01T08:38:39.556Z,101096.95
2018-04-01T08:41:41.669Z,101096.40
2018-04-01T08:44:43.911Z,101097.58
2018-04-01T08:47:46.005Z,101100.56
2018-04-01T08:50:48.114Z,101105.05
2018-04-01T08:53:50.215Z,101114.64
2018-04-01T08:56:52.325Z,101110.52
2018-04-01T08:59:54.444Z,101115.90
2018-04-01T09:02:56.610Z,101117.21
2018-04-01T09:05:59.005Z,101117.50
2018-04-01T09:09:01.120Z,101121.47
2018-04-01T09:12:03.388Z,101119.54
2018-04-01T09:15:05.654Z,101119.71
2018-04-01T09:18:07.860Z,101117.77
2018-04-01T09:21:09.954Z,101115.24
2018-04-01T09:24:12.078Z,101125.66
2018-04-01T09:27:14.231Z,101118.55
2018-04-01T09:30:16.506Z,101127.91
2018-04-01T09:33:18.674Z,101124.04
2018-04-01T09:36:20.843Z,101130.49
2018-04-01T09:39:22.951Z,101136.95
2018-04-01T09:42:25.094Z,101139.18
2018-04-01T09:45:27.199Z,101139.38
2018-04-01T09:48:29.325Z,101139.57
2018-04-01T09:51:31.455Z,101137.16
2018-04-01T09:54:33.572Z,101141.77
2018-04-01T09:57:35.736Z,101143.35
2018-04-01T10:00:41.406Z,101150.77
2018-04-01T10:03:44.551Z,101148.73
2018-04-01T10:06:47.880Z,101147.27
2018-04-01T10:09:52.435Z,101153.61
2018-04-01T10:12:55.656Z,101156.13
2018-04-01T10:15:58.874Z,101148.38
2018-04-01T10:19:02.369Z,101161.35
2018-04-01T10:22:06.363Z,101157.57
2018-04-01T10:25:09.661Z,101160.37
2018-04-01T10:28:12.944Z,101164.19
2018-04-01T10:31:16.291Z,101171.04
2018-04-01T10:34:19.545Z,101171.19
2018-04-01T10:37:23.160Z,101180.64
2018-04-01T10:40:26.744Z,101181.50
2018-04-01T10:43:30.076Z,101184.74
2018-04-01T10:46:33.353Z,101189.47
2018-04-01T10:49:36.560Z,101181.59
2018-04-01T10:52:39.849Z,101179.67
2018-04-01T10:55:41.967Z,101173.01
2018-04-01T10:58:44.056Z,101185.19
2018-04-01T11:01:46.176Z,101185.26
2018-04-01T11:04:48.290Z,101190.60
2018-04-01T11:07:50.423Z,101206.56
2018-04-01T11:10:52.572Z,101191.04
2018-04-01T11:13:54.728Z,101198.85
2018-04-01T11:16:56.960Z,101194.11
2018-04-01T11:19:59.059Z,101185.66
2018-04-01T11:23:01.173Z,101183.10
2018-04-01T11:26:03.313Z,101186.13
2018-04-01T11:29:05.421Z,101177.50
2018-04-01T11:32:07.554Z,101189.00
2018-04-01T11:35:09.687Z,101191.65
2018-04-01T11:38:11.794Z,101198.24
2018-04-01T11:41:13.957Z,101204.85
2018-04-01T11:44:16.070Z,101197.24
2018-04-01T11:47:18.198Z,101191.12
2018-04-01T11:50:20.314Z,101205.36
2018-04-01T11:53:22.463Z,101207.86
2018-04-01T11:56:24.612Z,101216.41
2018-04-01T11:59:26.740Z,101261.31
2018-04-01T12:02:28.858Z,101239.30
2018-04-01T12:05:30.961Z,101233.44
2018-04-01T12:08:33.109Z,101222.25
2018-04-01T12:11:35.206Z,101221.20
2018-04-01T12:14:37.334Z,101221.98
2018-04-01T12:17:39.442Z,101225.99
2018-04-01T12:20:41.583Z,101235.30
2018-04-01T12:23:43.734Z,101229.17
2018-04-01T12:26:45.862Z,101221.22
2018-04-01T12:29:47.994Z,101227.56
2018-04-01T12:32:50.106Z,101231.42
2018-04-01T12:35:52.334Z,101240.60
2018-04-01T12:38:54.499Z,101247.31
2018-04-01T12:41:56.619Z,101248.49
2018-04-01T12:44:58.766Z,101260.43
2018-04-01T12:48:00.901Z,101265.79
2018-04-01T12:51:03.031Z,101257.65
2018-04-01T12:54:05.140Z,101257.93
2018-04-01T12:57:07.247Z,101262.91
2018-04-01T13:00:09.396Z,101270.37
2018-04-01T13:03:11.599Z,101269.10
2018-04-01T13:06:13.735Z,101269.22
2018-04-01T13:09:15.855Z,101268.73
2018-04-01T13:12:18.053Z,101270.76
2018-04-01T13:15:20.166Z,101265.35
2018-04-01T13:18:22.371Z,101266.10
2018-04-01T13:21:24.513Z,101265.18
2018-04-01T13:24:26.709Z,101258.90
2018-04-01T13:27:28.838Z,101259.68
2018-04-01T13:30:30.978Z,101251.56
2018-04-01T13:33:33.131Z,101253.71
2018-04-01T13:36:35.300Z,101260.11
2018-04-01T13:39:37.433Z,101264.27
2018-04-01T13:42:39.627Z,101261.71
2018-04-01T13:45:41.783Z,101253.50
2018-04-01T13:48:43.922Z,101256.64
2018-04-01T13:51:46.034Z,101245.25
2018-04-01T13:54:48.182Z,101252.94
2018-04-01T13:57:50.310Z,101254.01
2018-04-01T14:00:52.482Z,101260.79
2018-04-01T14:03:54.672Z,101265.96
2018-04-01T14:06:56.802Z,101275.20
2018-04-01T14:09:58.998Z,101280.55
2018-04-01T14:13:01.197Z,101287.03
2018-04-01T14:16:03.369Z,101315.68
2018-04-01T14:19:05.480Z,101317.24
2018-04-01T14:22:07.604Z,101323.13
2018-04-01T14:25:09.731Z,101334.72
2018-04-01T14:28:11.891Z,101337.51
2018-04-01T14:31:14.060Z,101343.11
2018-04-01T14:34:16.225Z,101335.18
2018-04-01T14:37:18.451Z,101336.79
2018-04-01T14:40:20.591Z,101332.70
2018-04-01T14:43:22.771Z,101338.51
2018-04-01T14:46:24.857Z,101339.15
2018-04-01T14:49:26.977Z,101345.08
2018-04-01T14:52:29.110Z,101346.40
2018-04-01T14:55:31.254Z,101345.80
2018-04-01T14:58:33.374Z,101352.06
2018-04-01T15:01:35.495Z,101338.23
2018-04-01T15:04:37.579Z,101351.66
2018-04-01T15:07:39.720Z,101350.54
2018-04-01T15:10:41.943Z,101352.69
2018-04-01T15:13:44.106Z,101350.78
2018-04-01T15:16:46.210Z,101359.91
2018-04-01T15:19:48.309Z,101354.99
2018-04-01T15:22:50.429Z,101350.41
2018-04-01T15:25:52.537Z,101350.03
2018-04-01T15:28:54.661Z,101350.63
2018-04-01T15:31:56.746Z,101355.18
2018-04-01T15:34:58.950Z,101349.08
2018-04-01T15:38:01.097Z,101352.35
2018-04-01T15:41:03.226Z,101350.42
2018-04-01T15:44:05.359Z,101362.22
2018-04-01T15:47:07.498Z,101360.88
2018-04-01T15:50:09.622Z,101367.72
2018-04-01T15:53:11.798Z,101359.57
2018-04-01T15:56:14.135Z,101361.58
2018-04-01T15:59:16.345Z,101359.72
2018-04-01T16:02:18.512Z,101365.41
2018-04-01T16:05:20.737Z,101367.71
2018-04-01T16:08:23.225Z,101371.57
2018-04-01T16:11:25.327Z,101365.96
2018-04-01T16:14:27.425Z,101364.66
2018-04-01T16:17:29.539Z,101371.20
2018-04-01T16:20:31.658Z,101379.89
2018-04-01T16:23:33.766Z,101380.05
2018-04-01T16:26:35.886Z,101390.17
2018-04-01T16:29:37.993Z,101383.06
2018-04-01T16:32:40.149Z,101413.89
2018-04-01T16:35:42.244Z,101415.77
2018-04-01T16:38:44.493Z,101428.45
2018-04-01T16:41:46.606Z,101429.16
2018-04-01T16:44:48.852Z,101431.22
2018-04-01T16:47:50.942Z,101436.55
2018-04-01T16:50:53.196Z,101438.89
2018-04-01T16:53:55.290Z,101438.17
2018-04-01T16:56:57.429Z,101450.88
2018-04-01T16:59:59.542Z,101455.65
2018-04-01T17:03:01.672Z,101449.15
2018-04-01T17:06:03.775Z,101455.10
2018-04-01T17:09:05.895Z,101464.18
2018-04-01T17:12:07.998Z,101477.60
2018-04-01T17:15:10.159Z,101475.71
2018-04-01T17:18:12.269Z,101480.64
2018-04-01T17:21:14.381Z,101484.82
2018-04-01T17:24:16.502Z,101485.60
2018-04-01T17:27:18.659Z,101489.90
2018-04-01T17:30:20.785Z,101495.78
2018-04-01T17:33:22.895Z,101502.66
2018-04-01T17:36:24.994Z,101507.13
2018-04-01T17:39:27.095Z,101508.17
2018-04-01T17:42:29.199Z,101510.45
2018-04-01T17:45:31.305Z,101515.69
2018-04-01T17:48:33.416Z,101518.04
2018-04-01T17:51:35.590Z,101527.28
2018-04-01T17:54:37.725Z,101528.76
2018-04-01T17:57:39.837Z,101529.88
2018-04-01T18:00:41.943Z,101534.25
2018-04-01T18:03:44.071Z,101541.66
2018-04-01T18:06:46.149Z,101545.67
2018-04-01T18:09:48.308Z,101558.43
2018-04-01T18:12:50.410Z,101563.00
2018-04-01T18:15:52.697Z,101564.32
2018-04-01T18:18:54.796Z,101571.97
2018-04-01T18:21:56.921Z,101571.36
2018-04-01T18:24:59.009Z,101576.11
2018-04-01T18:28:01.160Z,101581.68
2018-04-01T18:31:03.281Z,101586.83
2018-04-01T18:34:05.404Z,101588.35
2018-04-01T18:37:07.539Z,101589.28
2018-04-01T18:40:09.650Z,101587.19
2018-04-01T18:43:11.759Z,101589.78
2018-04-01T18:46:13.943Z,101591.26
2018-04-01T18:49:16.071Z,101601.14
2018-04-01T18:52:19.247Z,101604.02
2018-04-01T18:55:21.361Z,101613.75
2018-04-01T18:58:23.491Z,101630.22
2018-04-01T19:01:25.643Z,101638.53
2018-04-01T19:04:27.850Z,101641.47
2018-04-01T19:07:30.002Z,101651.37
2018-04-01T19:10:32.154Z,101656.71
2018-04-01T19:13:34.273Z,101660.42
2018-04-01T19:16:45.319Z,101666.81
2018-04-01T19:19:48.654Z,101667.75
2018-04-01T19:22:51.922Z,101673.22
2018-04-01T19:25:55.205Z,101671.97
2018-04-01T19:28:58.530Z,101679.55
2018-04-01T19:32:01.741Z,101677.10
2018-04-01T19:35:05.114Z,101682.89
2018-04-01T19:38:08.429Z,101683.78
2018-04-01T19:41:11.694Z,101683.28
2018-04-01T19:44:14.992Z,101689.84
2018-04-01T19:47:18.322Z,101693.63
2018-04-01T19:50:21.682Z,101693.79
2018-04-01T19:53:24.946Z,101705.29
2018-04-01T19:56:28.178Z,101711.91
2018-04-01T19:59:31.490Z,101714.39
2018-04-01T20:02:34.869Z,101714.16
2018-04-01T20:05:38.029Z,101711.93
2018-04-01T20:08:41.322Z,101719.25
2018-04-01T20:11:44.620Z,101715.22
2018-04-01T20:14:47.911Z,101709.75
2018-04-01T20:17:51.182Z,101711.45
2018-04-01T20:20:54.448Z,101713.39
2018-04-01T20:23:57.848Z,101715.07
2018-04-01T20:27:01.058Z,101710.23
2018-04-01T20:30:04.676Z,101711.63
2018-04-01T20:33:08.139Z,101713.79
2018-04-01T20:36:11.644Z,101713.53
2018-04-01T20:39:15.152Z,101715.17
2018-04-01T20:42:18.431Z,101717.87
2018-04-01T20:45:22.408Z,101724.30
2018-04-01T20:48:26.322Z,101725.72
2018-04-01T20:51:29.876Z,101721.96
2018-04-01T20:54:33.386Z,101719.69
2018-04-01T20:57:36.889Z,101718.27
2018-04-01T21:00:40.498Z,101724.04
2018-04-01T21:03:44.106Z,101720.57
2018-04-01T21:06:47.398Z,101720.62
2018-04-01T21:09:50.727Z,101726.26
2018-04-01T21:12:54.247Z,101725.77
2018-04-01T21:15:57.525Z,101722.30
2018-04-01T21:19:00.810Z,101724.96
2018-04-01T21:22:04.089Z,101728.89
2018-04-01T21:25:07.502Z,101731.56
2018-04-01T21:28:10.741Z,101726.74
2018-04-01T21:31:13.922Z,101727.85
2018-04-01T21:34:17.189Z,101733.38
2018-04-01T21:37:20.430Z,101737.24
2018-04-01T21:40:23.704Z,101739.99
2018-04-01T21:43:26.923Z,101740.94
2018-04-01T21:46:30.184Z,101745.89
2018-04-01T21:49:33.491Z,101752.22
2018-04-01T21:52:36.781Z,101749.31
2018-04-01T21:55:40.064Z,101746.41
2018-04-01T21:58:43.785Z,101747.53
2018-04-01T22:01:47.046Z,101749.96
2018-04-01T22:04:50.236Z,101747.93
2018-04-01T22:07:53.681Z,101748.79
2018-04-01T22:10:56.958Z,101748.50
2018-04-01T22:14:00.306Z,101754.93
2018-04-01T22:17:03.479Z,101756.26
2018-04-01T22:20:07.003Z,101755.14
2018-04-01T22:23:13.184Z,101761.23
2018-04-01T22:26:16.467Z,101755.93
2018-04-01T22:29:19.633Z,101760.41
2018-04-01T22:32:23.064Z,101760.92
2018-04-01T22:35:26.254Z,101755.70
2018-04-01T22:38:29.624Z,101756.00
2018-04-01T22:41:32.839Z,101755.67
2018-04-01T22:44:36.127Z,101757.28
2018-04-01T22:47:39.365Z,101760.93
2018-04-01T22:50:42.638Z,101761.75
2018-04-01T22:53:45.904Z,101759.32
2018-04-01T22:56:49.194Z,101760.47
2018-04-01T22:59:52.496Z,101767.66
2018-04-01T23:02:55.708Z,101769.33
2018-04-01T23:06:05.451Z,101765.19
2018-04-01T23:09:10.318Z,101766.11
2018-04-01T23:12:13.652Z,101761.19
2018-04-01T23:15:16.976Z,101764.35
2018-04-01T23:18:23.916Z,101765.74
2018-04-01T23:21:30.285Z,101763.89
2018-04-01T23:24:39.899Z,101763.41
2018-04-01T23:27:59.349Z,101764.01
2018-04-01T23:31:03.591Z,101764.00
2018-04-01T23:34:16.705Z,101766.50
2018-04-01T23:37:20.378Z,101765.06
2018-04-01T23:40:29.523Z,101761.79
2018-04-01T23:43:32.830Z,101760.63
2018-04-01T23:46:36.118Z,101765.83
2018-04-01T23:49:39.344Z,101762.84
2018-04-01T23:52:46.308Z,101759.51
2018-04-01T23:55:49.508Z,101761.07
2018-04-01T23:58:58.616Z,101756.37
